createdAt,value
2023-01-29T00:01:58.708Z,6.26
2023-01-29T00:04:25.938Z,6.33
2023-01-29T00:06:53.060Z,6.35
2023-01-29T00:09:21.744Z,6.40
2023-01-29T00:11:48.951Z,6.39
2023-01-29T00:14:15.993Z,6.37
2023-01-29T00:16:43.082Z,6.33
2023-01-29T00:19:10.343Z,6.36
2023-01-29T00:21:37.310Z,6.31
2023-01-29T00:24:05.160Z,6.30
2023-01-29T00:26:33.626Z,6.32
2023-01-29T00:29:02.209Z,6.40
2023-01-29T00:31:29.575Z,6.40
2023-01-29T00:33:56.885Z,6.41
2023-01-29T00:36:25.148Z,6.42
2023-01-29T00:38:58.694Z,6.49
2023-01-29T00:41:47.297Z,6.40
2023-01-29T00:44:34.719Z,6.42
2023-01-29T00:47:02.142Z,6.54
2023-01-29T00:49:30.597Z,6.51
2023-01-29T00:52:18.867Z,6.55
2023-01-29T00:54:45.869Z,6.51
2023-01-29T00:57:16.182Z,6.54
2023-01-29T00:59:44.747Z,6.61
2023-01-29T01:02:30.442Z,6.65
2023-01-29T01:05:03.412Z,6.60
2023-01-29T01:07:30.849Z,6.59
2023-01-29T01:10:16.919Z,6.52
2023-01-29T01:12:48.251Z,6.63
2023-01-29T01:15:17.359Z,6.75
2023-01-29T01:17:44.508Z,6.64
2023-01-29T01:20:12.625Z,6.67
2023-01-29T01:22:39.844Z,6.64
2023-01-29T01:25:10.315Z,6.56
2023-01-29T01:27:41.222Z,6.67
2023-01-29T01:30:11.552Z,6.54
2023-01-29T01:32:40.496Z,6.71
2023-01-29T01:35:09.751Z,6.69
2023-01-29T01:37:39.868Z,6.74
2023-01-29T01:40:12.907Z,6.70
2023-01-29T01:42:41.290Z,6.72
2023-01-29T01:45:19.653Z,6.78
2023-01-29T01:47:51.931Z,6.68
2023-01-29T01:50:22.870Z,6.67
2023-01-29T01:52:52.837Z,6.80
2023-01-29T01:55:23.675Z,6.75
2023-01-29T01:57:59.121Z,6.69
2023-01-29T02:00:27.043Z,6.67
2023-01-29T02:03:14.778Z,6.69
2023-01-29T02:06:01.028Z,6.66
2023-01-29T02:08:54.697Z,6.70
2023-01-29T02:11:21.774Z,6.77
2023-01-29T02:13:53.634Z,6.83
2023-01-29T02:16:21.618Z,6.77
2023-01-29T02:18:50.949Z,6.81
2023-01-29T02:21:41.097Z,6.86
2023-01-29T02:24:35.191Z,6.86
2023-01-29T02:27:09.314Z,6.92
2023-01-29T02:29:50.661Z,6.82
2023-01-29T02:32:28.770Z,6.84
2023-01-29T02:35:25.198Z,6.85
2023-01-29T02:38:02.077Z,7.00
2023-01-29T02:40:36.028Z,6.86
2023-01-29T02:43:07.489Z,6.88
2023-01-29T02:45:45.716Z,6.91
2023-01-29T02:48:18.199Z,6.83
2023-01-29T02:50:51.093Z,6.83
2023-01-29T02:53:21.792Z,6.80
2023-01-29T02:55:53.449Z,6.80
2023-01-29T02:58:27.618Z,6.88
2023-01-29T03:01:00.446Z,6.85
2023-01-29T03:03:31.356Z,6.92
2023-01-29T03:06:02.543Z,6.88
2023-01-29T03:08:43.345Z,6.85
2023-01-29T03:11:13.852Z,6.77
2023-01-29T03:13:46.111Z,6.80
2023-01-29T03:16:22.588Z,7.13
2023-01-29T03:18:57.058Z,7.11
2023-01-29T03:21:49.179Z,6.89
2023-01-29T03:24:37.927Z,6.82
2023-01-29T03:27:27.248Z,6.79
2023-01-29T03:30:15.373Z,6.58
2023-01-29T03:32:46.722Z,6.55
2023-01-29T03:35:21.058Z,6.66
2023-01-29T03:37:49.522Z,6.75
2023-01-29T03:40:16.977Z,6.77
2023-01-29T03:42:56.330Z,6.76
2023-01-29T03:45:34.840Z,6.79
2023-01-29T03:48:12.272Z,6.85
2023-01-29T03:50:48.137Z,6.84
2023-01-29T03:53:23.666Z,6.81
2023-01-29T03:55:58.395Z,6.79
2023-01-29T03:58:36.782Z,6.87
2023-01-29T04:01:08.018Z,6.86
2023-01-29T04:03:40.572Z,6.82
2023-01-29T04:06:11.834Z,6.90
2023-01-29T04:08:45.719Z,6.91
2023-01-29T04:11:17.570Z,6.89
2023-01-29T04:13:45.904Z,6.90
2023-01-29T04:16:17.715Z,6.99
2023-01-29T04:18:47.942Z,6.92
2023-01-29T04:21:15.514Z,6.86
2023-01-29T04:23:43.997Z,6.94
2023-01-29T04:26:29.673Z,6.80
2023-01-29T04:29:16.431Z,6.82
2023-01-29T04:31:56.636Z,6.88
2023-01-29T04:34:28.952Z,6.82
2023-01-29T04:37:05.011Z,6.82
2023-01-29T04:39:40.604Z,6.85
2023-01-29T04:42:14.569Z,6.89
2023-01-29T04:44:45.396Z,6.91
2023-01-29T04:47:22.291Z,6.94
2023-01-29T04:49:59.423Z,6.94
2023-01-29T04:52:36.409Z,6.91
2023-01-29T04:55:08.680Z,6.93
2023-01-29T04:57:43.322Z,6.83
2023-01-29T05:00:17.049Z,6.94
2023-01-29T05:02:45.225Z,7.01
2023-01-29T05:05:16.639Z,7.02
2023-01-29T05:07:44.246Z,6.97
2023-01-29T05:10:13.259Z,7.01
2023-01-29T05:12:43.475Z,6.95
2023-01-29T05:15:18.466Z,6.95
2023-01-29T05:17:47.103Z,7.02
2023-01-29T05:20:16.083Z,6.97
2023-01-29T05:22:45.178Z,6.98
2023-01-29T05:25:31.183Z,6.92
2023-01-29T05:28:04.493Z,6.85
2023-01-29T05:30:33.920Z,6.87
2023-01-29T05:33:01.569Z,6.87
2023-01-29T05:35:30.709Z,6.85
2023-01-29T05:37:57.845Z,6.86
2023-01-29T05:40:25.583Z,6.89
2023-01-29T05:42:52.900Z,6.97
2023-01-29T05:45:20.156Z,6.98
2023-01-29T05:47:47.619Z,6.92
2023-01-29T05:50:15.955Z,6.96
2023-01-29T05:52:44.896Z,6.99
2023-01-29T05:55:11.998Z,6.95
2023-01-29T05:57:40.941Z,6.99
2023-01-29T06:00:09.401Z,7.09
2023-01-29T06:02:36.502Z,7.00
2023-01-29T06:05:03.891Z,6.92
2023-01-29T06:07:31.046Z,6.95
2023-01-29T06:09:59.626Z,6.97
2023-01-29T06:12:27.173Z,6.96
2023-01-29T06:14:54.494Z,7.01
2023-01-29T06:17:21.837Z,7.03
2023-01-29T06:19:48.871Z,7.00
2023-01-29T06:22:16.031Z,6.83
2023-01-29T06:24:43.069Z,6.95
2023-01-29T06:27:11.620Z,7.06
2023-01-29T06:29:39.085Z,6.97
2023-01-29T06:32:06.416Z,7.03
2023-01-29T06:38:50.817Z,6.97
2023-01-29T06:41:20.661Z,6.93
2023-01-29T06:43:49.131Z,7.02
2023-01-29T06:46:16.272Z,7.00
2023-01-29T06:48:43.669Z,6.87
2023-01-29T06:51:11.819Z,6.78
2023-01-29T06:53:39.889Z,6.71
2023-01-29T06:56:07.737Z,6.85
2023-01-29T06:58:37.012Z,6.86
2023-01-29T07:01:06.349Z,6.82
2023-01-29T07:03:33.532Z,6.97
2023-01-29T07:06:01.197Z,7.05
2023-01-29T07:08:28.977Z,7.03
2023-01-29T07:11:02.262Z,7.16
2023-01-29T07:13:29.761Z,7.17
2023-01-29T07:15:59.304Z,7.13
2023-01-29T07:18:28.598Z,6.95
2023-01-29T07:20:56.524Z,7.00
2023-01-29T07:23:24.051Z,7.03
2023-01-29T07:25:51.214Z,7.07
2023-01-29T07:28:18.605Z,7.04
2023-01-29T07:30:45.650Z,7.03
2023-01-29T07:33:13.041Z,7.10
2023-01-29T07:35:42.830Z,7.14
2023-01-29T07:38:11.013Z,7.08
2023-01-29T07:40:38.158Z,7.04
2023-01-29T07:43:07.040Z,6.99
2023-01-29T07:45:35.599Z,7.05
2023-01-29T07:48:05.155Z,7.11
2023-01-29T07:50:34.516Z,7.19
2023-01-29T07:53:03.229Z,7.15
2023-01-29T07:55:30.927Z,7.10
2023-01-29T07:57:59.225Z,7.09
2023-01-29T08:00:26.713Z,7.07
2023-01-29T08:02:53.777Z,7.12
2023-01-29T08:05:21.075Z,7.11
2023-01-29T08:08:05.847Z,7.19
2023-01-29T08:10:35.820Z,7.17
2023-01-29T08:13:04.382Z,7.23
2023-01-29T08:15:31.730Z,7.13
2023-01-29T08:17:58.829Z,7.28
2023-01-29T08:20:26.222Z,7.21
2023-01-29T08:23:00.451Z,7.42
2023-01-29T08:25:28.088Z,7.31
2023-01-29T08:27:57.936Z,7.38
2023-01-29T08:30:25.426Z,7.39
2023-01-29T08:32:52.481Z,7.32
2023-01-29T08:35:19.861Z,7.34
2023-01-29T08:37:53.335Z,7.40
2023-01-29T08:40:20.573Z,7.39
2023-01-29T08:42:47.891Z,7.49
2023-01-29T08:45:16.473Z,7.46
2023-01-29T08:47:47.336Z,7.49
2023-01-29T08:50:15.026Z,7.42
2023-01-29T08:52:42.524Z,7.34
2023-01-29T08:55:10.447Z,7.54
2023-01-29T08:57:37.532Z,7.46
2023-01-29T09:00:05.960Z,7.43
2023-01-29T09:02:34.483Z,7.34
2023-01-29T09:05:01.584Z,7.31
2023-01-29T09:07:30.073Z,7.45
2023-01-29T09:09:57.317Z,7.38
2023-01-29T09:12:24.722Z,7.46
2023-01-29T09:14:51.783Z,7.43
2023-01-29T09:17:18.839Z,7.40
2023-01-29T09:19:47.251Z,7.28
2023-01-29T09:22:14.484Z,7.45
2023-01-29T09:24:41.516Z,7.56
2023-01-29T09:27:10.091Z,7.48
2023-01-29T09:29:37.484Z,7.43
2023-01-29T09:32:04.834Z,7.30
2023-01-29T09:34:32.003Z,7.20
2023-01-29T09:37:00.441Z,7.44
2023-01-29T09:39:27.493Z,7.57
2023-01-29T09:41:59.897Z,7.79
2023-01-29T09:44:45.463Z,7.64
2023-01-29T09:47:17.017Z,7.64
2023-01-29T09:49:48.207Z,7.92
2023-01-29T09:52:21.722Z,7.98
2023-01-29T09:54:54.878Z,7.63
2023-01-29T09:57:26.773Z,8.07
2023-01-29T09:59:54.713Z,8.01
2023-01-29T10:02:50.707Z,8.21
2023-01-29T10:05:32.571Z,8.27
2023-01-29T10:08:29.779Z,8.53
2023-01-29T10:11:08.139Z,8.51
2023-01-29T10:13:44.110Z,8.66
2023-01-29T10:16:30.804Z,8.71
2023-01-29T10:19:16.830Z,8.78
2023-01-29T10:22:00.362Z,8.79
2023-01-29T10:24:38.187Z,8.57
2023-01-29T10:27:13.787Z,8.63
2023-01-29T10:29:42.863Z,8.66
2023-01-29T10:32:16.643Z,8.54
2023-01-29T10:34:46.617Z,8.87
2023-01-29T10:37:18.649Z,8.86
2023-01-29T10:39:47.306Z,8.86
2023-01-29T10:42:21.283Z,9.14
2023-01-29T10:45:04.674Z,9.17
2023-01-29T10:48:04.938Z,8.88
2023-01-29T10:50:44.150Z,8.94
2023-01-29T10:53:30.001Z,8.69
2023-01-29T10:56:21.824Z,8.98
2023-01-29T10:58:52.141Z,9.18
2023-01-29T11:01:19.279Z,9.35
2023-01-29T11:03:46.404Z,9.30
2023-01-29T11:06:20.110Z,9.14
2023-01-29T11:08:55.200Z,9.46
2023-01-29T11:11:31.968Z,9.36
2023-01-29T11:14:05.249Z,9.29
2023-01-29T11:16:33.532Z,8.98
2023-01-29T11:19:01.756Z,9.03
2023-01-29T11:21:29.863Z,9.06
2023-01-29T11:27:23.766Z,9.44
2023-01-29T11:29:51.361Z,9.38
2023-01-29T11:32:32.665Z,9.64
2023-01-29T11:35:01.828Z,9.51
2023-01-29T11:37:34.584Z,9.48
2023-01-29T11:40:01.868Z,9.59
2023-01-29T11:42:32.655Z,9.42
2023-01-29T11:44:59.758Z,9.63
2023-01-29T11:47:29.020Z,9.65
2023-01-29T11:49:58.268Z,9.84
2023-01-29T11:52:27.965Z,9.89
2023-01-29T11:54:59.389Z,9.91
2023-01-29T11:57:35.902Z,9.71
2023-01-29T12:00:07.445Z,9.58
2023-01-29T12:02:38.080Z,9.38
2023-01-29T12:05:14.439Z,9.50
2023-01-29T12:07:43.157Z,9.73
2023-01-29T12:10:31.256Z,9.80
2023-01-29T12:13:06.974Z,9.83
2023-01-29T12:15:34.081Z,9.66
2023-01-29T12:18:08.245Z,9.85
2023-01-29T12:20:39.608Z,9.94
2023-01-29T12:23:19.588Z,9.83
2023-01-29T12:25:56.693Z,9.82
2023-01-29T12:28:35.959Z,9.92
2023-01-29T12:31:16.224Z,10.09
2023-01-29T12:33:50.345Z,9.94
2023-01-29T12:36:24.525Z,10.26
2023-01-29T12:38:51.865Z,10.00
2023-01-29T12:41:36.978Z,9.88
2023-01-29T12:44:13.733Z,9.72
2023-01-29T12:46:44.512Z,9.67
2023-01-29T12:49:16.826Z,10.15
2023-01-29T12:51:51.747Z,10.08
2023-01-29T12:54:23.447Z,10.32
2023-01-29T12:56:56.191Z,10.18
2023-01-29T12:59:31.793Z,9.91
2023-01-29T13:02:05.241Z,10.16
2023-01-29T13:04:39.194Z,9.93
2023-01-29T13:07:13.141Z,9.66
2023-01-29T13:09:42.573Z,9.97
2023-01-29T13:12:14.878Z,10.19
2023-01-29T13:14:48.858Z,10.21
2023-01-29T13:17:18.391Z,9.83
2023-01-29T13:19:50.354Z,9.75
2023-01-29T13:22:23.387Z,9.94
2023-01-29T13:25:03.682Z,10.02
2023-01-29T13:27:35.228Z,10.13
2023-01-29T13:30:04.873Z,10.37
2023-01-29T13:32:35.078Z,9.88
2023-01-29T13:35:05.088Z,10.14
2023-01-29T13:37:34.605Z,10.39
2023-01-29T13:40:04.507Z,10.32
2023-01-29T13:42:40.664Z,9.99
2023-01-29T13:45:19.035Z,9.90
2023-01-29T13:47:46.539Z,9.73
2023-01-29T13:50:21.371Z,9.63
2023-01-29T13:52:54.279Z,9.55
2023-01-29T13:55:26.326Z,9.50
2023-01-29T13:57:56.274Z,9.71
2023-01-29T14:00:58.399Z,9.63
2023-01-29T14:04:04.837Z,9.60
2023-01-29T14:06:52.244Z,9.55
2023-01-29T14:09:50.133Z,9.68
2023-01-29T14:12:37.557Z,9.75
2023-01-29T14:15:19.012Z,9.75
2023-01-29T14:18:13.854Z,9.92
2023-01-29T14:20:56.411Z,9.65
2023-01-29T14:23:30.071Z,9.69
2023-01-29T14:25:59.363Z,9.66
2023-01-29T14:28:29.881Z,9.39
2023-01-29T14:30:57.176Z,9.55
2023-01-29T14:33:31.400Z,9.95
2023-01-29T14:35:59.107Z,9.71
2023-01-29T14:38:28.674Z,9.87
2023-01-29T14:41:16.515Z,10.10
2023-01-29T14:43:43.489Z,10.06
2023-01-29T14:46:43.542Z,9.96
2023-01-29T14:49:12.000Z,9.71
2023-01-29T14:51:44.180Z,9.99
2023-01-29T14:54:25.305Z,9.82
2023-01-29T14:56:59.448Z,9.68
2023-01-29T14:59:32.949Z,9.64
2023-01-29T15:02:05.673Z,9.56
2023-01-29T15:04:41.224Z,9.65
2023-01-29T15:07:20.098Z,9.69
2023-01-29T15:09:55.465Z,9.81
2023-01-29T15:12:30.071Z,9.56
2023-01-29T15:15:08.041Z,9.39
2023-01-29T15:17:41.846Z,9.38
2023-01-29T15:20:29.827Z,9.39
2023-01-29T15:22:56.968Z,9.45
2023-01-29T15:25:24.768Z,9.37
2023-01-29T15:27:52.330Z,9.31
2023-01-29T15:30:22.892Z,9.40
2023-01-29T15:32:50.200Z,9.59
2023-01-29T15:35:30.409Z,9.35
2023-01-29T15:38:03.787Z,9.16
2023-01-29T15:40:31.458Z,9.34
2023-01-29T15:42:58.785Z,9.36
2023-01-29T15:45:30.223Z,9.50
2023-01-29T15:48:03.887Z,9.25
2023-01-29T15:50:36.666Z,9.40
2023-01-29T15:53:12.456Z,9.22
2023-01-29T15:55:40.531Z,9.06
2023-01-29T15:58:12.822Z,8.96
2023-01-29T16:00:39.821Z,9.07
2023-01-29T16:03:15.393Z,8.91
2023-01-29T16:05:44.335Z,8.89
2023-01-29T16:08:14.175Z,9.08
2023-01-29T16:10:42.367Z,9.09
2023-01-29T16:13:17.043Z,8.95
2023-01-29T16:15:55.761Z,8.63
2023-01-29T16:18:25.202Z,9.05
2023-01-29T16:20:55.153Z,9.29
2023-01-29T16:23:25.536Z,9.48
2023-01-29T16:25:52.533Z,9.28
2023-01-29T16:28:19.912Z,9.06
2023-01-29T16:30:47.131Z,9.03
2023-01-29T16:33:17.449Z,9.15
2023-01-29T16:35:51.159Z,9.19
2023-01-29T16:38:27.394Z,9.22
2023-01-29T16:41:13.532Z,9.21
2023-01-29T16:43:52.284Z,9.17
2023-01-29T16:46:24.688Z,9.22
2023-01-29T16:48:53.048Z,9.20
2023-01-29T16:51:28.387Z,8.76
2023-01-29T16:53:59.299Z,8.97
2023-01-29T16:56:30.448Z,9.01
2023-01-29T16:58:58.393Z,9.04
2023-01-29T17:01:28.699Z,8.95
2023-01-29T17:04:03.266Z,8.95
2023-01-29T17:06:32.819Z,8.66
2023-01-29T17:09:01.370Z,8.76
2023-01-29T17:11:33.614Z,8.86
2023-01-29T17:14:01.342Z,8.81
2023-01-29T17:16:30.418Z,8.74
2023-01-29T17:18:58.377Z,8.91
2023-01-29T17:21:25.846Z,9.16
2023-01-29T17:23:53.234Z,8.89
2023-01-29T17:26:23.225Z,8.89
2023-01-29T17:28:51.691Z,8.87
2023-01-29T17:31:18.735Z,8.87
2023-01-29T17:33:46.084Z,8.93
2023-01-29T17:36:16.200Z,9.15
2023-01-29T17:38:43.246Z,9.07
2023-01-29T17:46:37.619Z,8.91
2023-01-29T17:49:10.041Z,8.93
2023-01-29T17:51:37.816Z,9.07
2023-01-29T17:54:05.026Z,9.03
2023-01-29T17:56:37.153Z,8.85
2023-01-29T17:59:13.310Z,8.95
2023-01-29T18:01:41.845Z,9.03
2023-01-29T18:04:09.594Z,9.18
2023-01-29T18:06:37.232Z,9.06
2023-01-29T18:09:04.833Z,8.94
2023-01-29T18:11:31.946Z,8.96
2023-01-29T18:13:58.965Z,9.15
2023-01-29T18:16:36.548Z,9.18
2023-01-29T18:19:13.862Z,9.14
2023-01-29T18:21:41.078Z,9.25
2023-01-29T18:24:08.926Z,9.02
2023-01-29T18:26:36.232Z,8.74
2023-01-29T18:29:03.901Z,8.92
2023-01-29T18:31:31.575Z,8.80
2023-01-29T18:33:58.972Z,8.99
2023-01-29T18:36:30.327Z,8.96
2023-01-29T18:38:57.636Z,8.66
2023-01-29T18:41:25.041Z,8.90
2023-01-29T18:43:52.974Z,8.89
2023-01-29T18:46:20.543Z,9.03
2023-01-29T18:48:48.046Z,8.96
2023-01-29T18:51:15.353Z,8.87
2023-01-29T18:53:45.969Z,8.80
2023-01-29T18:56:14.717Z,9.04
2023-01-29T18:58:42.300Z,9.05
2023-01-29T19:01:19.115Z,9.29
2023-01-29T19:03:46.270Z,9.32
2023-01-29T19:06:13.446Z,9.51
2023-01-29T19:08:43.018Z,9.28
2023-01-29T19:11:12.689Z,9.26
2023-01-29T19:13:40.990Z,9.24
2023-01-29T19:16:09.217Z,9.23
2023-01-29T19:18:36.758Z,9.53
2023-01-29T19:21:07.983Z,9.45
2023-01-29T19:23:35.056Z,9.46
2023-01-29T19:26:02.398Z,9.21
2023-01-29T19:28:31.396Z,9.40
2023-01-29T19:30:59.105Z,9.35
2023-01-29T19:33:27.990Z,9.59
2023-01-29T19:35:56.446Z,9.55
2023-01-29T19:38:23.703Z,9.57
2023-01-29T19:40:50.798Z,9.56
2023-01-29T19:43:18.276Z,9.33
2023-01-29T19:45:53.664Z,9.45
2023-01-29T19:48:21.886Z,9.59
2023-01-29T19:50:53.080Z,9.42
2023-01-29T19:53:20.279Z,9.30
2023-01-29T19:55:48.552Z,9.25
2023-01-29T19:58:15.560Z,9.39
2023-01-29T20:00:42.547Z,9.58
2023-01-29T20:03:11.067Z,9.25
2023-01-29T20:05:38.171Z,9.65
2023-01-29T20:08:05.663Z,9.69
2023-01-29T20:10:32.667Z,9.52
2023-01-29T20:12:59.738Z,9.53
2023-01-29T20:15:26.830Z,9.65
2023-01-29T20:17:53.758Z,9.70
2023-01-29T20:20:22.244Z,9.60
2023-01-29T20:22:51.385Z,9.66
2023-01-29T20:25:18.369Z,9.69
2023-01-29T20:27:45.524Z,9.77
2023-01-29T20:30:13.263Z,9.80
2023-01-29T20:32:40.394Z,9.87
2023-01-29T20:35:08.850Z,9.88
2023-01-29T20:37:37.337Z,9.84
2023-01-29T20:40:05.135Z,9.89
2023-01-29T20:42:32.107Z,9.97
2023-01-29T20:44:59.155Z,9.74
2023-01-29T20:47:26.035Z,9.79
2023-01-29T20:49:53.138Z,9.87
2023-01-29T20:52:20.256Z,9.96
2023-01-29T20:54:48.870Z,9.80
2023-01-29T20:57:16.023Z,10.06
2023-01-29T20:59:45.151Z,10.00
2023-01-29T21:02:12.385Z,10.02
2023-01-29T21:04:39.411Z,10.04
2023-01-29T21:07:06.359Z,9.99
2023-01-29T21:09:37.029Z,9.95
2023-01-29T21:12:07.205Z,10.00
2023-01-29T21:14:34.254Z,9.94
2023-01-29T21:17:01.918Z,9.81
2023-01-29T21:19:30.292Z,9.92
2023-01-29T21:22:00.657Z,9.93
2023-01-29T21:24:29.667Z,9.80
2023-01-29T21:26:56.724Z,9.90
2023-01-29T21:29:27.356Z,9.89
2023-01-29T21:31:54.770Z,9.93
2023-01-29T21:34:21.755Z,9.90
2023-01-29T21:36:48.805Z,10.01
2023-01-29T21:39:21.080Z,9.99
2023-01-29T21:42:08.463Z,9.82
2023-01-29T21:44:37.778Z,9.87
2023-01-29T21:47:12.326Z,10.17
2023-01-29T21:49:40.627Z,10.47
2023-01-29T21:52:08.759Z,10.43
2023-01-29T21:54:49.248Z,10.24
2023-01-29T21:57:16.935Z,10.28
2023-01-29T21:59:51.369Z,10.49
2023-01-29T22:02:21.911Z,10.32
2023-01-29T22:04:50.376Z,10.28
2023-01-29T22:07:17.367Z,10.16
2023-01-29T22:09:44.785Z,10.17
2023-01-29T22:12:12.146Z,10.15
2023-01-29T22:14:39.285Z,10.09
2023-01-29T22:17:08.506Z,10.15
2023-01-29T22:19:35.563Z,10.24
2023-01-29T22:22:02.749Z,10.28
2023-01-29T22:24:29.908Z,9.82
2023-01-29T22:26:56.952Z,10.07
2023-01-29T22:29:24.152Z,10.08
2023-01-29T22:31:51.899Z,10.12
2023-01-29T22:34:20.605Z,10.06
2023-01-29T22:36:47.952Z,9.97
2023-01-29T22:39:14.960Z,9.93
2023-01-29T22:41:41.962Z,10.13
2023-01-29T22:44:09.831Z,10.20
2023-01-29T22:46:36.901Z,10.23
2023-01-29T22:49:04.045Z,10.10
2023-01-29T22:51:33.131Z,10.13
2023-01-29T22:54:01.522Z,10.01
2023-01-29T22:56:30.700Z,10.05
2023-01-29T22:58:59.662Z,10.10
2023-01-29T23:01:28.917Z,9.99
2023-01-29T23:03:56.293Z,10.08
2023-01-29T23:06:24.061Z,9.91
2023-01-29T23:08:52.581Z,9.81
2023-01-29T23:11:23.551Z,10.04
2023-01-29T23:13:52.296Z,10.23
2023-01-29T23:16:21.615Z,10.30
2023-01-29T23:18:51.659Z,10.03
2023-01-29T23:21:19.404Z,10.03
2023-01-29T23:23:47.085Z,10.11
2023-01-29T23:26:34.706Z,10.19
2023-01-29T23:29:03.794Z,10.29
2023-01-29T23:31:31.858Z,10.35
2023-01-29T23:33:59.309Z,10.11
2023-01-29T23:36:26.819Z,10.21
2023-01-29T23:38:53.920Z,10.25
2023-01-29T23:41:22.959Z,9.97
2023-01-29T23:43:50.277Z,10.33
2023-01-29T23:46:17.579Z,10.14
2023-01-29T23:48:44.643Z,10.12
2023-01-29T23:51:11.799Z,9.93
2023-01-29T23:53:39.002Z,10.05
2023-01-29T23:56:06.777Z,9.92
2023-01-29T23:58:35.309Z,9.75
